createdAt,value
2019-01-11T00:00:39.286Z,274.77
2019-01-11T00:03:07.593Z,300.30
2019-01-11T00:05:35.894Z,314.00
2019-01-11T00:08:04.440Z,327.67
2019-01-11T00:10:32.970Z,334.53
2019-01-11T00:13:01.511Z,358.20
2019-01-11T00:15:30.772Z,341.00
2019-01-11T00:17:59.095Z,358.37
2019-01-11T00:20:27.381Z,353.87
2019-01-11T00:22:55.939Z,350.00
2019-01-11T00:25:24.474Z,361.87
2019-01-11T00:27:52.763Z,350.77
2019-01-11T00:30:21.069Z,340.17
2019-01-11T00:32:49.619Z,348.13
2019-01-11T00:35:17.929Z,344.40
2019-01-11T00:37:46.221Z,336.63
2019-01-11T00:40:14.600Z,325.67
2019-01-11T00:42:42.895Z,327.77
2019-01-11T00:45:11.777Z,314.10
2019-01-11T00:47:40.075Z,323.40
2019-01-11T00:50:09.322Z,323.83
2019-01-11T00:52:37.897Z,319.20
2019-01-11T00:55:09.914Z,339.90
2019-01-11T00:57:38.205Z,333.17
2019-01-11T01:00:15.393Z,342.00
2019-01-11T01:02:43.760Z,343.67
2019-01-11T01:05:12.187Z,339.07
2019-01-11T01:07:40.734Z,332.83
2019-01-11T01:10:09.264Z,329.77
2019-01-11T01:12:37.650Z,318.43
2019-01-11T01:15:09.744Z,318.13
2019-01-11T01:17:38.054Z,312.77
2019-01-11T01:20:09.451Z,302.70
2019-01-11T01:22:38.082Z,304.43
2019-01-11T01:25:06.711Z,306.20
2019-01-11T01:27:35.188Z,268.27
2019-01-11T01:30:05.540Z,300.87
2019-01-11T01:32:33.860Z,328.33
2019-01-11T01:35:02.406Z,358.40
2019-01-11T01:37:30.697Z,342.30
2019-01-11T01:39:59.012Z,348.17
2019-01-11T01:42:27.300Z,325.93
2019-01-11T01:44:55.607Z,333.93
2019-01-11T01:47:24.155Z,319.33
2019-01-11T01:49:52.716Z,323.20
2019-01-11T01:52:21.029Z,329.73
2019-01-11T01:54:49.344Z,319.20
2019-01-11T01:57:17.714Z,324.50
2019-01-11T01:59:46.026Z,306.57
2019-01-11T02:02:14.317Z,309.93
2019-01-11T02:04:42.624Z,305.40
2019-01-11T02:07:11.157Z,316.77
2019-01-11T02:09:39.453Z,300.23
2019-01-11T02:12:07.998Z,307.37
2019-01-11T02:14:36.296Z,303.93
2019-01-11T02:17:04.973Z,306.33
2019-01-11T02:19:33.279Z,307.60
2019-01-11T02:22:01.572Z,307.67
2019-01-11T02:24:29.861Z,299.13
2019-01-11T02:26:58.174Z,300.10
2019-01-11T02:29:26.456Z,312.30
2019-01-11T02:31:54.771Z,296.30
2019-01-11T02:34:23.314Z,309.67
2019-01-11T02:36:51.900Z,288.00
2019-01-11T02:39:20.202Z,286.87
2019-01-11T02:41:48.487Z,294.67
2019-01-11T02:44:16.793Z,316.40
2019-01-11T02:46:45.093Z,249.93
2019-01-11T02:49:13.646Z,273.23
2019-01-11T02:51:42.198Z,276.67
2019-01-11T02:54:10.676Z,273.23
2019-01-11T02:56:38.964Z,277.47
2019-01-11T02:59:07.348Z,250.17
2019-01-11T03:01:35.874Z,264.20
2019-01-11T03:04:04.254Z,257.13
2019-01-11T03:06:32.550Z,235.93
2019-01-11T03:09:00.950Z,229.77
2019-01-11T03:11:29.492Z,230.27
2019-01-11T03:13:58.025Z,234.63
2019-01-11T03:16:26.343Z,248.23
2019-01-11T03:18:54.868Z,236.67
2019-01-11T03:21:23.196Z,239.47
2019-01-11T03:23:51.484Z,240.57
2019-01-11T03:26:19.798Z,252.23
2019-01-11T03:28:48.099Z,230.23
2019-01-11T03:31:18.086Z,243.53
2019-01-11T03:33:46.456Z,234.43
2019-01-11T03:36:14.781Z,236.57
2019-01-11T03:38:43.304Z,246.63
2019-01-11T03:41:11.612Z,239.80
2019-01-11T03:43:39.972Z,249.50
2019-01-11T03:46:08.278Z,246.00
2019-01-11T03:48:36.563Z,245.23
2019-01-11T03:51:04.998Z,226.23
2019-01-11T03:53:33.547Z,231.10
2019-01-11T03:56:01.892Z,252.50
2019-01-11T03:58:30.189Z,262.00
2019-01-11T04:00:58.477Z,275.30
2019-01-11T04:03:26.784Z,251.30
2019-01-11T04:05:55.331Z,235.83
2019-01-11T04:08:23.712Z,249.87
2019-01-11T04:10:52.121Z,252.53
2019-01-11T04:13:20.413Z,266.50
2019-01-11T04:15:48.681Z,266.70
2019-01-11T04:18:24.595Z,270.93
2019-01-11T04:20:52.965Z,265.00
2019-01-11T04:23:21.263Z,237.47
2019-01-11T04:25:49.556Z,288.13
2019-01-11T04:28:17.934Z,272.50
2019-01-11T04:30:46.225Z,259.63
2019-01-11T04:33:14.522Z,284.30
2019-01-11T04:35:43.066Z,275.13
2019-01-11T04:38:11.364Z,271.50
2019-01-11T04:40:39.747Z,273.27
2019-01-11T04:43:08.115Z,246.13
2019-01-11T04:45:36.427Z,264.73
2019-01-11T04:48:05.304Z,250.90
2019-01-11T04:50:33.932Z,257.20
2019-01-11T04:53:02.483Z,281.63
2019-01-11T04:55:31.041Z,260.57
2019-01-11T04:57:59.334Z,257.23
2019-01-11T05:00:27.655Z,260.90
2019-01-11T05:02:55.944Z,259.97
2019-01-11T05:05:24.530Z,268.10
2019-01-11T05:07:52.822Z,277.30
2019-01-11T05:10:21.506Z,261.50
2019-01-11T05:12:49.822Z,258.13
2019-01-11T05:15:18.375Z,265.40
2019-01-11T05:17:46.688Z,279.23
2019-01-11T05:20:17.136Z,261.77
2019-01-11T05:22:45.653Z,275.83
2019-01-11T05:25:14.085Z,275.97
2019-01-11T05:27:42.402Z,274.87
2019-01-11T05:30:13.949Z,285.17
2019-01-11T05:32:42.264Z,294.10
2019-01-11T05:35:10.726Z,297.73
2019-01-11T05:37:39.032Z,275.40
2019-01-11T05:40:10.508Z,300.53
2019-01-11T05:42:38.811Z,284.80
2019-01-11T05:45:07.482Z,295.07
2019-01-11T05:47:35.863Z,287.03
2019-01-11T05:50:07.668Z,315.60
2019-01-11T05:52:36.035Z,292.20
2019-01-11T05:55:06.093Z,296.60
2019-01-11T05:57:34.461Z,310.60
2019-01-11T06:00:02.778Z,296.07
2019-01-11T06:02:31.072Z,314.23
2019-01-11T06:05:00.246Z,305.13
2019-01-11T06:07:28.597Z,290.23
2019-01-11T06:09:56.902Z,295.27
2019-01-11T06:12:25.194Z,311.57
2019-01-11T06:14:53.504Z,311.47
2019-01-11T06:17:21.877Z,327.87
2019-01-11T06:19:50.184Z,299.93
2019-01-11T06:22:18.653Z,297.53
2019-01-11T06:24:47.049Z,296.30
2019-01-11T06:27:15.348Z,298.67
2019-01-11T06:29:43.846Z,329.13
2019-01-11T06:32:12.154Z,306.83
2019-01-11T06:34:40.764Z,312.00
2019-01-11T06:37:09.400Z,271.30
2019-01-11T06:39:37.692Z,308.07
2019-01-11T06:42:07.717Z,309.13
2019-01-11T06:44:39.073Z,318.50
2019-01-11T06:47:06.056Z,330.50
2019-01-11T06:49:34.358Z,320.27
2019-01-11T06:52:02.923Z,310.40
2019-01-11T06:54:31.468Z,296.57
2019-01-11T06:56:59.781Z,292.33
2019-01-11T06:59:28.336Z,302.17
2019-01-11T07:01:56.649Z,313.33
2019-01-11T07:04:24.949Z,306.83
2019-01-11T07:06:53.509Z,313.33
2019-01-11T07:09:21.805Z,329.73
2019-01-11T07:11:50.345Z,314.40
2019-01-11T07:14:18.652Z,302.00
2019-01-11T07:16:47.314Z,315.87
2019-01-11T07:19:15.626Z,321.67
2019-01-11T07:21:44.164Z,314.83
2019-01-11T07:24:12.486Z,314.97
2019-01-11T07:26:41.031Z,315.27
2019-01-11T07:29:09.588Z,311.43
2019-01-11T07:31:38.044Z,316.87
2019-01-11T07:34:06.595Z,307.17
2019-01-11T07:36:35.518Z,394.60
2019-01-11T07:39:07.885Z,351.73
2019-01-11T07:41:36.249Z,282.77
2019-01-11T07:44:04.704Z,263.97
2019-01-11T07:46:33.008Z,413.93
2019-01-11T07:49:02.564Z,370.37
2019-01-11T07:51:30.778Z,367.03
2019-01-11T07:53:59.150Z,361.43
2019-01-11T07:56:27.450Z,391.17
2019-01-11T07:58:56.001Z,328.33
2019-01-11T08:01:24.324Z,338.37
2019-01-11T08:03:52.619Z,353.90
2019-01-11T08:06:20.914Z,397.57
2019-01-11T08:08:49.224Z,356.43
2019-01-11T08:11:17.513Z,357.10
2019-01-11T08:13:45.818Z,337.37
2019-01-11T08:16:14.106Z,349.07
2019-01-11T08:18:42.657Z,349.60
2019-01-11T08:21:10.951Z,341.30
2019-01-11T08:23:39.506Z,340.10
2019-01-11T08:26:07.864Z,337.60
2019-01-11T08:28:36.174Z,344.40
2019-01-11T08:31:04.471Z,333.30
2019-01-11T08:33:32.786Z,336.03
2019-01-11T08:36:01.258Z,351.13
2019-01-11T08:38:29.819Z,349.50
2019-01-11T08:40:58.366Z,348.67
2019-01-11T08:43:26.673Z,342.00
2019-01-11T08:45:55.225Z,358.30
2019-01-11T08:48:24.308Z,333.23
2019-01-11T08:50:52.799Z,343.17
2019-01-11T08:53:21.178Z,317.33
2019-01-11T08:55:49.490Z,327.23
2019-01-11T08:58:17.817Z,327.77
2019-01-11T09:00:46.603Z,333.33
2019-01-11T09:03:15.184Z,332.97
2019-01-11T09:05:43.478Z,336.53
2019-01-11T09:08:19.485Z,341.80
2019-01-11T09:10:47.829Z,330.33
2019-01-11T09:13:16.463Z,343.37
2019-01-11T09:15:44.764Z,336.83
2019-01-11T09:18:13.333Z,331.53
2019-01-11T09:20:42.307Z,335.73
2019-01-11T09:23:10.700Z,324.27
2019-01-11T09:25:39.089Z,335.40
2019-01-11T09:28:07.610Z,341.20
2019-01-11T09:30:35.974Z,344.00
2019-01-11T09:33:04.607Z,340.73
2019-01-11T09:35:33.017Z,342.27
2019-01-11T09:38:01.666Z,346.63
2019-01-11T09:40:30.134Z,346.07
2019-01-11T09:42:58.419Z,345.70
2019-01-11T09:45:26.826Z,346.83
2019-01-11T09:47:55.119Z,332.33
2019-01-11T09:50:23.454Z,337.77
2019-01-11T09:52:51.752Z,317.43
2019-01-11T09:55:20.212Z,341.10
2019-01-11T09:57:48.762Z,343.27
2019-01-11T10:00:23.013Z,330.10
2019-01-11T10:02:55.599Z,316.50
2019-01-11T10:05:23.938Z,326.93
2019-01-11T10:07:52.490Z,331.97
2019-01-11T10:10:21.152Z,338.00
2019-01-11T10:12:49.460Z,332.90
2019-01-11T10:15:17.850Z,335.93
2019-01-11T10:17:47.329Z,353.60
2019-01-11T10:20:15.721Z,347.83
2019-01-11T10:22:44.111Z,344.37
2019-01-11T10:25:12.765Z,356.87
2019-01-11T10:27:41.513Z,344.83
2019-01-11T10:30:15.351Z,348.33
2019-01-11T10:32:43.817Z,349.80
2019-01-11T10:35:12.174Z,328.97
2019-01-11T10:37:40.669Z,339.37
2019-01-11T10:40:12.248Z,342.47
2019-01-11T10:42:40.694Z,327.43
2019-01-11T10:45:12.244Z,331.40
2019-01-11T10:47:40.564Z,339.10
2019-01-11T10:50:14.381Z,331.57
2019-01-11T10:52:42.700Z,333.73
2019-01-11T10:55:13.463Z,320.73
2019-01-11T10:57:42.387Z,318.37
2019-01-11T11:00:19.290Z,326.50
2019-01-11T11:02:47.616Z,336.20
2019-01-11T11:05:15.986Z,328.33
2019-01-11T11:07:44.676Z,322.27
2019-01-11T11:10:14.129Z,311.60
2019-01-11T11:12:42.448Z,302.33
2019-01-11T11:15:13.159Z,308.47
2019-01-11T11:17:42.212Z,303.77
2019-01-11T11:20:13.175Z,305.93
2019-01-11T11:22:41.814Z,298.63
2019-01-11T11:25:15.598Z,306.10
2019-01-11T11:27:45.718Z,305.33
2019-01-11T11:30:16.025Z,302.90
2019-01-11T11:32:56.679Z,317.83
2019-01-11T11:35:25.219Z,317.83
2019-01-11T11:37:53.977Z,317.87
2019-01-11T11:40:22.934Z,302.10
2019-01-11T11:42:51.254Z,316.50
2019-01-11T11:45:19.634Z,326.03
2019-01-11T11:47:47.939Z,326.97
2019-01-11T11:50:16.246Z,327.30
2019-01-11T11:52:47.720Z,332.60
2019-01-11T11:55:16.031Z,350.90
2019-01-11T11:57:44.355Z,343.13
2019-01-11T12:00:23.373Z,350.13
2019-01-11T12:02:51.765Z,361.37
2019-01-11T12:05:20.067Z,327.47
2019-01-11T12:07:48.432Z,336.80
2019-01-11T12:10:16.888Z,324.13
2019-01-11T12:12:45.254Z,326.33
2019-01-11T12:15:14.975Z,350.17
2019-01-11T12:17:43.272Z,338.17
2019-01-11T12:20:17.744Z,332.33
2019-01-11T12:22:46.100Z,323.37
2019-01-11T12:25:14.418Z,336.00
2019-01-11T12:27:42.748Z,332.10
2019-01-11T12:30:13.833Z,332.37
2019-01-11T12:32:42.144Z,336.73
2019-01-11T12:35:10.533Z,317.00
2019-01-11T12:37:38.930Z,326.87
2019-01-11T12:40:10.203Z,334.70
2019-01-11T12:42:38.499Z,340.33
2019-01-11T12:45:09.552Z,347.63
2019-01-11T12:47:38.131Z,344.83
2019-01-11T12:50:12.635Z,331.53
2019-01-11T12:52:40.954Z,317.67
2019-01-11T12:55:09.793Z,338.50
2019-01-11T12:57:38.170Z,339.87
2019-01-11T13:00:14.773Z,337.83
2019-01-11T13:02:43.072Z,355.60
2019-01-11T13:05:13.874Z,342.30
2019-01-11T13:07:42.247Z,346.47
2019-01-11T13:10:13.296Z,333.87
2019-01-11T13:12:41.863Z,344.80
2019-01-11T13:15:12.862Z,348.83
2019-01-11T13:17:41.166Z,369.83
2019-01-11T13:20:12.193Z,351.50
2019-01-11T13:22:40.644Z,365.87
2019-01-11T13:25:09.602Z,388.70
2019-01-11T13:27:37.923Z,373.63
2019-01-11T13:30:09.344Z,372.60
2019-01-11T13:32:37.707Z,378.70
2019-01-11T13:35:06.847Z,376.80
2019-01-11T13:37:35.167Z,390.87
2019-01-11T13:40:05.648Z,382.97
2019-01-11T13:42:33.989Z,383.00
2019-01-11T13:45:02.368Z,379.30
2019-01-11T13:47:33.167Z,388.70
2019-01-11T13:50:00.760Z,377.97
2019-01-11T13:52:29.374Z,397.73
2019-01-11T13:54:57.680Z,369.60
2019-01-11T13:57:25.990Z,376.50
2019-01-11T13:59:54.298Z,375.57
2019-01-11T14:02:22.625Z,369.40
2019-01-11T14:04:51.162Z,386.90
2019-01-11T14:07:19.464Z,396.87
2019-01-11T14:09:47.819Z,370.53
2019-01-11T14:12:16.137Z,351.70
2019-01-11T14:14:44.682Z,338.97
2019-01-11T14:17:12.992Z,327.17
2019-01-11T14:19:41.288Z,318.73
2019-01-11T14:22:13.630Z,365.97
2019-01-11T14:24:39.677Z,378.30
2019-01-11T14:27:09.044Z,396.20
2019-01-11T14:29:37.585Z,376.60
2019-01-11T14:32:06.150Z,377.17
2019-01-11T14:34:34.444Z,369.63
2019-01-11T14:37:03.002Z,362.03
2019-01-11T14:39:31.292Z,378.47
2019-01-11T14:42:00.018Z,385.17
2019-01-11T14:44:28.331Z,367.63
2019-01-11T14:46:56.634Z,375.43
2019-01-11T14:49:26.558Z,387.97
2019-01-11T14:51:54.846Z,395.10
2019-01-11T14:54:23.156Z,400.80
2019-01-11T14:56:51.442Z,396.77
2019-01-11T14:59:19.749Z,409.90
2019-01-11T15:01:48.045Z,356.20
2019-01-11T15:04:16.411Z,377.03
2019-01-11T15:06:44.703Z,384.17
2019-01-11T15:09:13.011Z,398.53
2019-01-11T15:11:41.300Z,374.50
2019-01-11T15:14:09.611Z,381.33
2019-01-11T15:16:37.905Z,354.40
2019-01-11T15:19:06.287Z,370.67
2019-01-11T15:21:34.572Z,359.37
2019-01-11T15:24:02.942Z,364.00
2019-01-11T15:26:31.253Z,367.27
2019-01-11T15:28:59.821Z,382.87
2019-01-11T15:31:28.136Z,404.00
2019-01-11T15:33:56.537Z,394.53
2019-01-11T15:36:24.825Z,370.80
2019-01-11T15:38:53.136Z,378.57
2019-01-11T15:41:21.438Z,391.50
2019-01-11T15:43:49.795Z,397.43
2019-01-11T15:46:18.305Z,380.60
2019-01-11T15:48:47.858Z,397.60
2019-01-11T15:51:17.990Z,397.67
2019-01-11T15:53:46.299Z,457.97
2019-01-11T15:56:16.305Z,428.60
2019-01-11T15:58:44.617Z,431.03
2019-01-11T16:01:12.988Z,395.50
2019-01-11T16:03:41.298Z,416.20
2019-01-11T16:06:21.124Z,421.77
2019-01-11T16:08:55.538Z,423.50
2019-01-11T16:11:32.817Z,432.93
2019-01-11T16:14:20.822Z,426.47
2019-01-11T16:16:49.659Z,417.93
2019-01-11T16:19:17.938Z,430.40
2019-01-11T16:21:46.256Z,437.17
2019-01-11T16:24:14.534Z,433.07
2019-01-11T16:26:42.875Z,434.33
2019-01-11T16:29:11.162Z,441.23
2019-01-11T16:31:39.510Z,452.53
2019-01-11T16:34:09.905Z,368.60
2019-01-11T16:36:38.128Z,361.17
2019-01-11T16:39:07.974Z,362.97
2019-01-11T16:41:36.552Z,370.57
2019-01-11T16:44:05.036Z,355.50
2019-01-11T16:46:33.346Z,364.33
2019-01-11T16:49:01.634Z,344.73
2019-01-11T16:51:30.218Z,347.63
2019-01-11T16:53:58.524Z,343.60
2019-01-11T16:56:26.830Z,343.80
2019-01-11T16:58:55.127Z,337.90
2019-01-11T17:01:23.455Z,345.97
2019-01-11T17:03:52.015Z,343.20
2019-01-11T17:06:20.321Z,325.50
2019-01-11T17:08:48.626Z,313.87
2019-01-11T17:11:17.207Z,306.10
2019-01-11T17:13:45.504Z,317.83
2019-01-11T17:16:13.825Z,324.83
2019-01-11T17:18:42.124Z,313.47
2019-01-11T17:21:10.434Z,321.07
2019-01-11T17:23:38.731Z,299.13
2019-01-11T17:26:07.121Z,294.60
2019-01-11T17:28:35.493Z,270.50
2019-01-11T17:31:03.815Z,276.87
2019-01-11T17:33:32.106Z,262.93
2019-01-11T17:36:00.424Z,261.53
2019-01-11T17:38:28.813Z,256.67
2019-01-11T17:40:57.145Z,252.77
2019-01-11T17:43:25.432Z,270.67
2019-01-11T17:45:53.751Z,276.93
2019-01-11T17:48:22.041Z,289.73
2019-01-11T17:50:50.590Z,298.13
2019-01-11T17:53:18.975Z,299.00
2019-01-11T17:55:47.274Z,293.20
2019-01-11T17:58:15.586Z,284.03
2019-01-11T18:00:43.920Z,269.37
2019-01-11T18:03:12.199Z,265.83
2019-01-11T18:05:40.733Z,277.20
2019-01-11T18:08:09.049Z,241.77
2019-01-11T18:10:37.605Z,260.37
2019-01-11T18:13:05.988Z,255.90
2019-01-11T18:15:34.287Z,267.67
2019-01-11T18:18:02.632Z,309.50
2019-01-11T18:20:30.926Z,300.77
2019-01-11T18:22:59.239Z,296.17
2019-01-11T18:25:27.527Z,299.97
2019-01-11T18:27:55.849Z,309.70
2019-01-11T18:30:24.152Z,288.77
2019-01-11T18:32:52.481Z,310.90
2019-01-11T18:35:20.769Z,305.93
2019-01-11T18:37:49.082Z,302.13
2019-01-11T18:40:26.887Z,304.63
2019-01-11T18:42:55.464Z,311.10
2019-01-11T18:45:28.615Z,314.97
2019-01-11T18:47:53.777Z,310.83
2019-01-11T18:50:23.796Z,342.33
2019-01-11T18:52:52.072Z,300.40
2019-01-11T18:55:20.443Z,325.60
2019-01-11T18:57:48.801Z,326.30
2019-01-11T19:00:20.624Z,334.67
2019-01-11T19:02:49.227Z,335.33
2019-01-11T19:05:17.676Z,339.77
2019-01-11T19:07:46.502Z,318.07
2019-01-11T19:10:19.238Z,338.93
2019-01-11T19:12:47.539Z,319.60
2019-01-11T19:15:18.642Z,329.00
2019-01-11T19:17:47.195Z,327.70
2019-01-11T19:20:23.333Z,320.83
2019-01-11T19:22:51.880Z,296.83
2019-01-11T19:25:20.259Z,323.33
2019-01-11T19:27:49.484Z,347.33
2019-01-11T19:30:20.529Z,323.43
2019-01-11T19:32:48.901Z,320.80
2019-01-11T19:35:17.280Z,324.27
2019-01-11T19:37:45.811Z,329.47
2019-01-11T19:40:16.287Z,323.33
2019-01-11T19:42:44.644Z,314.67
2019-01-11T19:45:14.482Z,324.03
2019-01-11T19:47:42.930Z,318.83
2019-01-11T19:50:14.335Z,308.23
2019-01-11T19:52:43.015Z,305.17
2019-01-11T19:55:11.668Z,308.47
2019-01-11T19:57:40.227Z,340.60
2019-01-11T20:00:14.240Z,302.63
2019-01-11T20:02:42.533Z,298.90
2019-01-11T20:05:11.227Z,296.20
2019-01-11T20:07:39.517Z,295.13
2019-01-11T20:10:19.850Z,308.13
2019-01-11T20:12:48.164Z,279.60
2019-01-11T20:15:16.710Z,279.03
2019-01-11T20:17:45.037Z,291.43
2019-01-11T20:20:14.550Z,286.67
2019-01-11T20:22:42.926Z,307.10
2019-01-11T20:25:19.364Z,313.27
2019-01-11T20:27:47.819Z,334.67
2019-01-11T20:30:21.785Z,287.70
2019-01-11T20:32:50.156Z,312.63
2019-01-11T20:35:19.108Z,278.20
2019-01-11T20:37:47.499Z,294.23
2019-01-11T20:40:16.721Z,281.90
2019-01-11T20:42:45.098Z,279.20
2019-01-11T20:45:15.527Z,281.60
2019-01-11T20:47:43.835Z,295.47
2019-01-11T20:50:17.134Z,284.50
2019-01-11T20:52:45.512Z,277.67
2019-01-11T20:55:14.245Z,300.50
2019-01-11T20:57:42.914Z,291.83
2019-01-11T21:00:20.025Z,318.60
2019-01-11T21:02:48.322Z,307.87
2019-01-11T21:05:17.076Z,296.57
2019-01-11T21:07:45.385Z,278.43
2019-01-11T21:10:14.639Z,276.63
2019-01-11T21:12:43.023Z,290.77
2019-01-11T21:15:16.999Z,292.00
2019-01-11T21:17:45.473Z,297.47
2019-01-11T21:20:15.901Z,314.03
2019-01-11T21:22:45.026Z,265.73
2019-01-11T21:25:15.067Z,275.60
2019-01-11T21:27:43.546Z,271.47
2019-01-11T21:30:14.797Z,279.23
2019-01-11T21:32:43.338Z,270.80
2019-01-11T21:35:11.722Z,300.80
2019-01-11T21:37:40.099Z,323.43
2019-01-11T21:40:11.722Z,281.67
2019-01-11T21:42:40.401Z,287.93
2019-01-11T21:45:12.872Z,292.80
2019-01-11T21:47:41.437Z,324.37
2019-01-11T21:50:12.554Z,291.87
2019-01-11T21:52:41.159Z,287.93
2019-01-11T21:55:11.057Z,280.87
2019-01-11T21:57:39.345Z,291.80
2019-01-11T22:00:13.486Z,283.07
2019-01-11T22:02:41.780Z,289.13
2019-01-11T22:05:10.469Z,300.33
2019-01-11T22:07:39.009Z,309.60
2019-01-11T22:10:13.137Z,304.87
2019-01-11T22:12:41.503Z,312.70
2019-01-11T22:15:12.847Z,328.80
2019-01-11T22:17:41.147Z,315.87
2019-01-11T22:20:12.539Z,326.37
2019-01-11T22:22:40.824Z,332.67
2019-01-11T22:25:10.947Z,318.87
2019-01-11T22:27:39.297Z,304.43
2019-01-11T22:30:12.916Z,314.53
2019-01-11T22:32:41.393Z,310.73
2019-01-11T22:35:09.835Z,320.93
2019-01-11T22:37:38.142Z,325.97
2019-01-11T22:40:17.682Z,306.37
2019-01-11T22:42:46.617Z,308.00
2019-01-11T22:45:15.961Z,323.03
2019-01-11T22:47:44.332Z,315.87
2019-01-11T22:50:14.575Z,297.97
2019-01-11T22:52:42.990Z,312.80
2019-01-11T22:55:14.134Z,309.53
2019-01-11T22:57:42.497Z,310.33
2019-01-11T23:00:36.490Z,302.73
2019-01-11T23:03:10.691Z,332.57
2019-01-11T23:05:39.638Z,295.40
2019-01-11T23:08:09.377Z,295.80
2019-01-11T23:10:43.517Z,290.67
2019-01-11T23:13:11.810Z,289.70
2019-01-11T23:15:40.120Z,296.20
2019-01-11T23:18:08.552Z,286.03
2019-01-11T23:20:36.863Z,285.60
2019-01-11T23:23:05.415Z,283.83
2019-01-11T23:25:33.729Z,290.60
2019-01-11T23:28:02.017Z,282.87
2019-01-11T23:30:30.321Z,284.13
2019-01-11T23:32:58.615Z,298.17
2019-01-11T23:35:26.925Z,292.63
2019-01-11T23:37:55.224Z,290.07
2019-01-11T23:40:23.834Z,296.53
2019-01-11T23:42:52.142Z,288.70
2019-01-11T23:45:20.432Z,287.30
2019-01-11T23:47:48.756Z,287.63
2019-01-11T23:50:17.375Z,295.87
2019-01-11T23:52:45.826Z,282.30
2019-01-11T23:55:14.109Z,306.17
2019-01-11T23:57:42.427Z,294.27
